createdAt,value
2022-11-09T00:00:08.916Z,98861.22
2022-11-09T00:02:58.368Z,98860.97
2022-11-09T00:05:56.876Z,98856.28
2022-11-09T00:08:46.085Z,98855.84
2022-11-09T00:11:35.383Z,98868.75
2022-11-09T00:14:24.694Z,98875.56
2022-11-09T00:17:15.551Z,98878.88
2022-11-09T00:20:05.809Z,98881.13
2022-11-09T00:22:55.077Z,98888.19
2022-11-09T00:25:44.356Z,98888.59
2022-11-09T00:28:33.942Z,98891.28
2022-11-09T00:31:25.369Z,98894.91
2022-11-09T00:34:16.184Z,98893.59
2022-11-09T00:37:05.539Z,98891.94
2022-11-09T00:39:54.796Z,98893.69
2022-11-09T00:42:44.018Z,98903.81
2022-11-09T00:45:33.343Z,98894.44
2022-11-09T00:48:22.825Z,98892.78
2022-11-09T00:51:14.464Z,98900.53
2022-11-09T00:54:03.893Z,98894.38
2022-11-09T00:56:53.551Z,98904.59
2022-11-09T00:59:42.863Z,98913.06
2022-11-09T01:02:32.374Z,98915.06
2022-11-09T01:05:22.080Z,98921.56
2022-11-09T01:08:13.329Z,98928.13
2022-11-09T01:11:07.386Z,98939.22
2022-11-09T01:13:57.271Z,98931.66
2022-11-09T01:16:46.620Z,98940.25
2022-11-09T01:19:35.964Z,98944.00
2022-11-09T01:22:25.275Z,98934.41
2022-11-09T01:25:18.951Z,98928.22
2022-11-09T01:28:09.665Z,98936.84
2022-11-09T01:31:03.529Z,98941.25
2022-11-09T01:33:54.449Z,98961.06
2022-11-09T01:36:43.685Z,98958.69
2022-11-09T01:39:32.975Z,98961.56
2022-11-09T01:42:27.631Z,98962.66
2022-11-09T01:45:29.153Z,98970.72
2022-11-09T01:48:24.558Z,98961.78
2022-11-09T01:51:28.853Z,98972.94
2022-11-09T01:54:24.774Z,98980.88
2022-11-09T01:57:23.195Z,98979.66
2022-11-09T02:00:18.172Z,98986.47
2022-11-09T02:03:14.153Z,98998.44
2022-11-09T02:06:07.959Z,99006.50
2022-11-09T02:09:06.290Z,99003.25
2022-11-09T02:11:55.706Z,99010.28
2022-11-09T02:14:47.161Z,99012.25
2022-11-09T02:17:38.897Z,99006.41
2022-11-09T02:20:30.419Z,99021.19
2022-11-09T02:23:21.856Z,98981.97
2022-11-09T02:26:19.457Z,99020.28
2022-11-09T02:29:12.519Z,99028.41
2022-11-09T02:32:06.194Z,99021.72
2022-11-09T02:34:55.521Z,99039.91
2022-11-09T02:37:49.804Z,99035.03
2022-11-09T02:40:44.236Z,99030.78
2022-11-09T02:43:33.720Z,99046.31
2022-11-09T02:46:26.683Z,99050.28
2022-11-09T02:49:16.157Z,99055.97
2022-11-09T02:52:06.192Z,99041.34
2022-11-09T02:54:56.948Z,99053.59
2022-11-09T02:57:46.516Z,99057.78
2022-11-09T03:00:38.038Z,99070.31
2022-11-09T03:03:27.580Z,99068.06
2022-11-09T03:06:17.386Z,99075.34
2022-11-09T03:09:11.044Z,99079.94
2022-11-09T03:12:22.648Z,99097.53
2022-11-09T03:15:12.993Z,99094.13
2022-11-09T03:18:06.720Z,99106.16
2022-11-09T03:20:56.333Z,99096.44
2022-11-09T03:23:45.845Z,99093.97
2022-11-09T03:26:35.612Z,99087.69
2022-11-09T03:29:27.631Z,99093.03
2022-11-09T03:32:17.937Z,99098.38
2022-11-09T03:35:09.137Z,99103.97
2022-11-09T03:37:58.617Z,99110.91
2022-11-09T03:40:48.531Z,99106.59
2022-11-09T03:43:37.830Z,99107.75
2022-11-09T03:46:28.593Z,99110.91
2022-11-09T03:49:17.949Z,99122.16
2022-11-09T03:52:07.360Z,99116.81
2022-11-09T03:54:56.847Z,99123.00
2022-11-09T03:57:47.432Z,99114.38
2022-11-09T04:00:37.073Z,99128.59
2022-11-09T04:03:27.853Z,99132.91
2022-11-09T04:06:17.510Z,99118.94
2022-11-09T04:09:06.780Z,99130.34
2022-11-09T04:11:56.079Z,99132.13
2022-11-09T04:14:45.427Z,99134.22
2022-11-09T04:17:34.716Z,99140.56
2022-11-09T04:20:25.909Z,99138.09
2022-11-09T04:23:15.605Z,99148.97
2022-11-09T04:26:04.912Z,99158.56
2022-11-09T04:28:54.289Z,99162.81
2022-11-09T04:31:43.573Z,99182.34
2022-11-09T04:34:32.918Z,99173.66
2022-11-09T04:37:24.891Z,99176.16
2022-11-09T04:40:14.721Z,99195.91
2022-11-09T04:43:06.862Z,99192.03
2022-11-09T04:45:56.315Z,99182.56
2022-11-09T04:48:45.610Z,99187.78
2022-11-09T04:51:35.000Z,99192.72
2022-11-09T04:54:25.634Z,99192.91
2022-11-09T04:57:14.889Z,99190.59
2022-11-09T05:00:05.608Z,99190.16
2022-11-09T05:02:54.994Z,99202.59
2022-11-09T05:05:48.319Z,99199.25
2022-11-09T05:08:38.076Z,99200.84
2022-11-09T05:11:29.020Z,99203.13
2022-11-09T05:14:18.434Z,99208.88
2022-11-09T05:17:08.963Z,99191.84
2022-11-09T05:19:58.210Z,99188.69
2022-11-09T05:23:05.128Z,99198.28
2022-11-09T05:25:54.330Z,99180.28
2022-11-09T05:28:45.130Z,99208.06
2022-11-09T05:31:35.159Z,99208.53
2022-11-09T05:34:24.696Z,99220.63
2022-11-09T05:37:14.181Z,99224.50
2022-11-09T05:40:03.597Z,99213.13
2022-11-09T05:42:52.932Z,99216.22
2022-11-09T05:45:44.444Z,99221.81
2022-11-09T05:48:34.705Z,99227.00
2022-11-09T05:51:24.012Z,99231.53
2022-11-09T05:54:13.707Z,99243.34
2022-11-09T05:57:02.993Z,99244.84
2022-11-09T05:59:52.180Z,99252.50
2022-11-09T06:02:42.936Z,99252.50
2022-11-09T06:05:33.731Z,99246.31
2022-11-09T06:08:22.984Z,99255.94
2022-11-09T06:11:21.523Z,99257.09
2022-11-09T06:14:12.774Z,99256.66
2022-11-09T06:17:02.138Z,99267.53
2022-11-09T06:19:52.957Z,99270.13
2022-11-09T06:22:42.566Z,99265.50
2022-11-09T06:25:33.231Z,99276.91
2022-11-09T06:28:22.753Z,99280.91
2022-11-09T06:31:16.567Z,99293.84
2022-11-09T06:34:05.825Z,99283.84
2022-11-09T06:36:56.697Z,99301.50
2022-11-09T06:39:47.501Z,99308.47
2022-11-09T06:42:37.431Z,99315.16
2022-11-09T06:45:28.174Z,99312.34
2022-11-09T06:48:17.602Z,99317.03
2022-11-09T06:51:08.522Z,99330.19
2022-11-09T06:53:59.230Z,99326.03
2022-11-09T06:56:48.479Z,99331.22
2022-11-09T06:59:37.817Z,99353.31
2022-11-09T07:02:27.333Z,99358.31
2022-11-09T07:05:17.295Z,99361.06
2022-11-09T07:08:07.408Z,99354.09
2022-11-09T07:11:03.553Z,99374.25
2022-11-09T07:13:57.266Z,99365.66
2022-11-09T07:16:46.970Z,99386.03
2022-11-09T07:19:36.463Z,99382.72
2022-11-09T07:22:25.878Z,99400.59
2022-11-09T07:25:15.138Z,99396.97
2022-11-09T07:28:07.723Z,99404.25
2022-11-09T07:30:58.699Z,99402.09
2022-11-09T07:33:48.069Z,99411.44
2022-11-09T07:36:38.193Z,99420.66
2022-11-09T07:39:27.559Z,99420.53
2022-11-09T07:42:16.784Z,99419.06
2022-11-09T07:45:09.061Z,99422.47
2022-11-09T07:48:00.607Z,99429.97
2022-11-09T07:50:50.213Z,99457.31
2022-11-09T07:53:40.360Z,99458.78
2022-11-09T07:56:29.739Z,99452.88
2022-11-09T07:59:19.165Z,99466.53
2022-11-09T08:02:11.179Z,99451.41
2022-11-09T08:05:00.548Z,99457.41
2022-11-09T08:07:49.881Z,99473.97
2022-11-09T08:10:40.237Z,99487.63
2022-11-09T08:13:29.632Z,99495.03
2022-11-09T08:16:19.275Z,99499.28
2022-11-09T08:19:10.787Z,99510.09
2022-11-09T08:22:01.988Z,99516.59
2022-11-09T08:24:51.517Z,99528.47
2022-11-09T08:27:41.766Z,99527.41
2022-11-09T08:30:31.563Z,99547.34
2022-11-09T08:33:20.960Z,99551.59
2022-11-09T08:36:15.062Z,99594.09
2022-11-09T08:39:04.763Z,99638.22
2022-11-09T08:41:54.386Z,99653.34
2022-11-09T08:44:43.981Z,99635.78
2022-11-09T08:47:33.424Z,99652.28
2022-11-09T08:50:24.200Z,99652.84
2022-11-09T08:53:14.809Z,99651.72
2022-11-09T08:56:06.537Z,99646.09
2022-11-09T08:58:55.824Z,99648.50
2022-11-09T09:01:45.165Z,99651.72
2022-11-09T09:04:34.791Z,99660.25
2022-11-09T09:07:24.091Z,99665.06
2022-11-09T09:10:14.838Z,99672.22
2022-11-09T09:13:05.382Z,99672.03
2022-11-09T09:15:55.239Z,99671.47
2022-11-09T09:18:44.813Z,99676.50
2022-11-09T09:21:34.142Z,99692.13
2022-11-09T09:24:23.595Z,99692.13
2022-11-09T09:27:14.708Z,99691.22
2022-11-09T09:30:04.470Z,99677.50
2022-11-09T09:32:54.347Z,99676.53
2022-11-09T09:35:43.585Z,99687.66
2022-11-09T09:38:32.880Z,99676.63
2022-11-09T09:41:37.259Z,99686.22
2022-11-09T09:44:35.806Z,99718.41
2022-11-09T09:47:35.506Z,99713.41
2022-11-09T09:50:29.350Z,99713.22
2022-11-09T09:53:27.625Z,99701.59
2022-11-09T09:56:23.105Z,99704.94
2022-11-09T09:59:24.533Z,99711.00
2022-11-09T10:02:25.076Z,99697.34
2022-11-09T10:05:18.183Z,99699.72
2022-11-09T10:08:10.580Z,99705.53
2022-11-09T10:11:16.503Z,99727.22
2022-11-09T10:14:56.902Z,99739.13
2022-11-09T10:18:05.245Z,99745.72
2022-11-09T10:21:33.150Z,99748.25
2022-11-09T10:24:48.576Z,99752.56
2022-11-09T10:27:55.709Z,99761.66
2022-11-09T10:30:45.775Z,99766.34
2022-11-09T10:33:37.173Z,99778.56
2022-11-09T10:36:34.914Z,99778.91
2022-11-09T10:39:27.761Z,99779.00
2022-11-09T10:42:35.773Z,99787.56
2022-11-09T10:45:45.796Z,99788.63
2022-11-09T10:48:55.983Z,99789.19
2022-11-09T10:52:04.267Z,99804.03
2022-11-09T10:55:28.203Z,99805.72
2022-11-09T10:58:39.300Z,99807.00
2022-11-09T11:01:47.578Z,99806.56
2022-11-09T11:05:36.646Z,99803.53
2022-11-09T11:08:47.820Z,99810.06
2022-11-09T11:12:17.114Z,99805.81
2022-11-09T11:15:26.789Z,99819.06
2022-11-09T11:18:37.538Z,99814.69
2022-11-09T11:21:47.041Z,99825.59
2022-11-09T11:24:58.330Z,99820.34
2022-11-09T11:28:23.134Z,99831.09
2022-11-09T11:31:31.478Z,99834.22
2022-11-09T11:34:58.973Z,99842.13
2022-11-09T11:38:23.923Z,99843.25
2022-11-09T11:41:59.879Z,99837.72
2022-11-09T11:45:41.448Z,99856.50
2022-11-09T11:49:36.251Z,99845.56
2022-11-09T11:53:03.591Z,99853.69
2022-11-09T11:56:34.800Z,99854.72
2022-11-09T12:00:10.191Z,99827.28
2022-11-09T12:03:52.520Z,99854.16
2022-11-09T12:07:21.683Z,99854.22
2022-11-09T12:10:47.601Z,99855.34
2022-11-09T12:14:12.752Z,99865.09
2022-11-09T12:17:32.999Z,99866.00
2022-11-09T12:20:54.810Z,99869.03
2022-11-09T12:24:17.095Z,99863.44
2022-11-09T12:27:54.170Z,99881.28
2022-11-09T12:31:15.036Z,99892.50
2022-11-09T12:34:30.049Z,99895.50
2022-11-09T12:37:45.920Z,99892.59
2022-11-09T12:41:02.268Z,99888.44
2022-11-09T12:44:17.721Z,99898.84
2022-11-09T12:47:33.932Z,99906.56
2022-11-09T12:50:42.967Z,99921.09
2022-11-09T12:53:50.954Z,99918.16
2022-11-09T12:57:02.653Z,99916.97
2022-11-09T13:00:51.868Z,99917.34
2022-11-09T13:04:05.027Z,99908.88
2022-11-09T13:07:50.682Z,99921.63
2022-11-09T13:11:20.400Z,99921.09
2022-11-09T13:14:39.803Z,99912.66
2022-11-09T13:18:02.321Z,99915.59
2022-11-09T13:21:45.962Z,99907.19
2022-11-09T13:24:59.731Z,99896.88
2022-11-09T13:28:46.081Z,99905.03
2022-11-09T13:32:27.654Z,99933.28
2022-11-09T13:36:13.956Z,99925.22
2022-11-09T13:39:34.200Z,99911.06
2022-11-09T13:42:42.201Z,99910.94
2022-11-09T13:45:54.046Z,99918.63
2022-11-09T13:49:01.753Z,99912.88
2022-11-09T13:52:53.544Z,99911.41
2022-11-09T13:56:16.981Z,99905.97
2022-11-09T13:59:30.150Z,99910.81
2022-11-09T14:02:38.300Z,99914.97
2022-11-09T14:05:50.184Z,99922.06
2022-11-09T14:08:59.933Z,99926.13
2022-11-09T14:12:27.862Z,99919.69
2022-11-09T14:15:48.687Z,99924.97
2022-11-09T14:19:12.672Z,99923.31
2022-11-09T14:22:21.425Z,99935.00
2022-11-09T14:25:35.771Z,99940.41
2022-11-09T14:28:44.724Z,99944.47
2022-11-09T14:31:52.845Z,99944.63
2022-11-09T14:35:22.384Z,99940.34
2022-11-09T14:38:34.882Z,99937.09
2022-11-09T14:41:46.123Z,99944.47
2022-11-09T14:44:55.646Z,99953.41
2022-11-09T14:48:04.323Z,99957.94
2022-11-09T14:51:14.775Z,99958.13
2022-11-09T14:54:28.264Z,99971.34
2022-11-09T14:57:38.145Z,99983.09
2022-11-09T15:01:06.683Z,99998.69
2022-11-09T15:04:20.243Z,99988.25
2022-11-09T15:07:32.037Z,99997.91
2022-11-09T15:10:40.107Z,100001.66
2022-11-09T15:13:48.514Z,100008.41
2022-11-09T15:17:07.960Z,100005.03
2022-11-09T15:20:31.699Z,100012.50
2022-11-09T15:23:42.273Z,100012.16
2022-11-09T15:26:52.877Z,100016.97
2022-11-09T15:30:00.823Z,100012.88
2022-11-09T15:33:25.631Z,100036.03
2022-11-09T15:36:36.677Z,100015.69
2022-11-09T15:39:44.325Z,100020.31
2022-11-09T15:42:52.596Z,100017.94
2022-11-09T15:46:02.038Z,100010.09
2022-11-09T15:49:19.539Z,100016.03
2022-11-09T15:52:27.416Z,100019.69
2022-11-09T15:55:35.594Z,100022.63
2022-11-09T15:58:43.487Z,100016.03
2022-11-09T16:01:51.611Z,100030.41
2022-11-09T16:05:02.477Z,100043.91
2022-11-09T16:08:10.031Z,100029.50
2022-11-09T16:11:18.609Z,100026.56
2022-11-09T16:14:26.793Z,100047.53
2022-11-09T16:17:34.338Z,100055.56
2022-11-09T16:20:43.608Z,100045.16
2022-11-09T16:23:57.125Z,100059.81
2022-11-09T16:27:12.850Z,100066.22
2022-11-09T16:30:35.153Z,100075.63
2022-11-09T16:33:42.970Z,100066.72
2022-11-09T16:36:56.803Z,100060.44
2022-11-09T16:40:12.508Z,100052.72
2022-11-09T16:43:20.529Z,100073.31
2022-11-09T16:46:30.817Z,100070.16
2022-11-09T16:49:38.825Z,100063.03
2022-11-09T16:52:47.900Z,100062.56
2022-11-09T16:55:55.855Z,100070.13
2022-11-09T16:59:03.908Z,100067.03
2022-11-09T17:02:11.504Z,100069.91
2022-11-09T17:05:19.774Z,100074.25
2022-11-09T17:08:28.911Z,100061.66
2022-11-09T17:11:37.453Z,100050.34
2022-11-09T17:14:44.978Z,100063.41
2022-11-09T17:17:52.565Z,100047.72
2022-11-09T17:21:00.364Z,100059.88
2022-11-09T17:24:10.128Z,100039.94
2022-11-09T17:27:18.297Z,100050.03
2022-11-09T17:30:26.380Z,100050.47
2022-11-09T17:33:34.153Z,100057.59
2022-11-09T17:37:03.014Z,100056.22
2022-11-09T17:40:12.501Z,100063.56
2022-11-09T17:43:20.306Z,100058.28
2022-11-09T17:46:28.544Z,100058.28
2022-11-09T17:49:36.800Z,100075.34
2022-11-09T17:52:44.503Z,100062.63
2022-11-09T17:55:53.953Z,100055.44
2022-11-09T17:59:02.132Z,100053.09
2022-11-09T18:02:13.013Z,100051.41
2022-11-09T18:05:21.013Z,100049.00
2022-11-09T18:08:29.156Z,100041.28
2022-11-09T18:11:38.047Z,100063.78
2022-11-09T18:14:45.905Z,100056.44
2022-11-09T18:17:53.743Z,100073.16
2022-11-09T18:21:08.106Z,100060.06
2022-11-09T18:24:16.420Z,100077.72
2022-11-09T18:27:30.082Z,100060.56
2022-11-09T18:30:41.799Z,100053.91
2022-11-09T18:33:51.494Z,100057.31
2022-11-09T18:36:59.270Z,100060.06
2022-11-09T18:40:08.541Z,100038.59
2022-11-09T18:43:17.660Z,100039.84
2022-11-09T18:46:30.161Z,100048.28
2022-11-09T18:49:38.608Z,100054.50
2022-11-09T18:52:46.286Z,100055.28
2022-11-09T18:56:04.711Z,100054.84
2022-11-09T18:59:15.836Z,100054.03
2022-11-09T19:02:23.689Z,100055.16
2022-11-09T19:05:31.511Z,100059.63
2022-11-09T19:08:57.254Z,100048.41
2022-11-09T19:12:08.547Z,100047.13
2022-11-09T19:15:17.746Z,100041.63
2022-11-09T19:18:25.997Z,100041.63
2022-11-09T19:21:40.156Z,100048.19
2022-11-09T19:24:48.167Z,100042.00
2022-11-09T19:27:56.149Z,100053.22
2022-11-09T19:31:05.544Z,100064.69
2022-11-09T19:34:15.498Z,100050.03
2022-11-09T19:37:23.167Z,100073.63
2022-11-09T19:40:35.503Z,100072.53
2022-11-09T19:43:49.474Z,100083.22
2022-11-09T19:46:59.470Z,100087.56
2022-11-09T19:50:09.197Z,100058.66
2022-11-09T19:53:17.901Z,100069.00
2022-11-09T19:56:29.577Z,100072.00
2022-11-09T19:59:37.213Z,100079.66
2022-11-09T20:02:47.686Z,100089.16
2022-11-09T20:05:55.861Z,100114.50
2022-11-09T20:09:03.807Z,100097.28
2022-11-09T20:12:32.812Z,100111.94
2022-11-09T20:15:40.942Z,100119.97
2022-11-09T20:18:50.283Z,100111.50
2022-11-09T20:21:58.268Z,100142.50
2022-11-09T20:25:07.051Z,100132.28
2022-11-09T20:28:14.943Z,100139.50
2022-11-09T20:31:23.984Z,100128.72
2022-11-09T20:34:33.471Z,100129.22
2022-11-09T20:37:41.087Z,100124.50
2022-11-09T20:40:55.892Z,100120.75
2022-11-09T20:44:04.093Z,100133.09
2022-11-09T20:47:12.301Z,100143.19
2022-11-09T20:50:21.827Z,100132.63
2022-11-09T20:53:29.683Z,100131.53
2022-11-09T20:56:38.784Z,100129.53
2022-11-09T20:59:46.657Z,100118.44
2022-11-09T21:02:55.004Z,100152.00
2022-11-09T21:06:10.974Z,100137.47
2022-11-09T21:09:19.013Z,100117.94
2022-11-09T21:12:27.594Z,100112.22
2022-11-09T21:15:35.400Z,100130.69
2022-11-09T21:18:44.043Z,100146.38
2022-11-09T21:21:53.135Z,100119.31
2022-11-09T21:25:18.869Z,100118.38
2022-11-09T21:28:45.187Z,100121.19
2022-11-09T21:31:53.561Z,100121.69
2022-11-09T21:35:01.491Z,100092.13
2022-11-09T21:38:10.302Z,100121.69
2022-11-09T21:41:35.852Z,100125.59
2022-11-09T21:44:43.768Z,100131.75
2022-11-09T21:47:52.402Z,100110.28
2022-11-09T21:51:00.904Z,100124.69
2022-11-09T21:54:10.942Z,100135.13
2022-11-09T21:57:19.202Z,100135.25
2022-11-09T22:00:27.876Z,100135.06
2022-11-09T22:03:36.725Z,100131.00
2022-11-09T22:06:44.768Z,100130.91
2022-11-09T22:10:10.990Z,100119.00
2022-11-09T22:13:36.740Z,100123.19
2022-11-09T22:16:45.001Z,100127.00
2022-11-09T22:20:10.721Z,100124.69
2022-11-09T22:23:18.977Z,100138.81
2022-11-09T22:26:29.764Z,100127.88
2022-11-09T22:29:37.888Z,100130.22
2022-11-09T22:32:45.851Z,100119.56
2022-11-09T22:35:57.358Z,100124.81
2022-11-09T22:39:05.342Z,100135.19
2022-11-09T22:42:14.817Z,100121.97
2022-11-09T22:45:22.626Z,100121.25
2022-11-09T22:48:33.070Z,100148.00
2022-11-09T22:51:41.679Z,100141.34
2022-11-09T22:54:49.411Z,100130.63
2022-11-09T22:57:58.942Z,100148.44
2022-11-09T23:01:11.413Z,100141.63
2022-11-09T23:04:19.041Z,100155.09
2022-11-09T23:07:26.951Z,100165.84
2022-11-09T23:10:34.894Z,100159.13
2022-11-09T23:13:44.729Z,100149.16
2022-11-09T23:16:52.760Z,100167.56
2022-11-09T23:19:59.243Z,100158.84
2022-11-09T23:23:07.285Z,100151.31
2022-11-09T23:26:15.471Z,100160.97
2022-11-09T23:29:24.607Z,100170.16
2022-11-09T23:32:33.131Z,100169.78
2022-11-09T23:35:41.408Z,100156.09
2022-11-09T23:38:50.514Z,100169.97
2022-11-09T23:41:58.717Z,100165.72
2022-11-09T23:45:09.447Z,100174.00
2022-11-09T23:48:19.392Z,100164.66
2022-11-09T23:51:27.234Z,100166.97
2022-11-09T23:54:35.301Z,100177.72
2022-11-09T23:57:43.473Z,100173.81
